createdAt,value
2019-03-22T00:00:07.481Z,49.13
2019-03-22T00:02:35.999Z,48.73
2019-03-22T00:05:05.189Z,48.73
2019-03-22T00:07:33.595Z,53.20
2019-03-22T00:10:02.015Z,49.00
2019-03-22T00:12:30.435Z,51.30
2019-03-22T00:14:58.828Z,56.47
2019-03-22T00:17:27.235Z,52.43
2019-03-22T00:19:55.648Z,53.67
2019-03-22T00:22:24.035Z,51.30
2019-03-22T00:24:52.518Z,52.23
2019-03-22T00:27:20.839Z,58.23
2019-03-22T00:29:49.260Z,58.43
2019-03-22T00:32:17.667Z,60.53
2019-03-22T00:34:46.152Z,59.33
2019-03-22T00:37:14.560Z,56.07
2019-03-22T00:39:43.009Z,57.40
2019-03-22T00:42:11.497Z,61.33
2019-03-22T00:44:39.912Z,63.63
2019-03-22T00:47:08.319Z,61.30
2019-03-22T00:49:36.794Z,66.30
2019-03-22T00:52:05.129Z,62.67
2019-03-22T00:54:33.557Z,71.07
2019-03-22T00:57:01.962Z,67.90
2019-03-22T00:59:30.345Z,67.73
2019-03-22T01:01:58.783Z,64.87
2019-03-22T01:04:27.195Z,70.37
2019-03-22T01:06:55.602Z,69.43
2019-03-22T01:09:24.020Z,65.77
2019-03-22T01:11:52.432Z,68.20
2019-03-22T01:14:20.912Z,66.63
2019-03-22T01:16:49.393Z,68.97
2019-03-22T01:19:17.775Z,71.23
2019-03-22T01:21:46.184Z,70.77
2019-03-22T01:24:14.573Z,71.90
2019-03-22T01:26:42.986Z,69.43
2019-03-22T01:29:11.367Z,74.10
2019-03-22T01:31:40.991Z,71.83
2019-03-22T01:34:09.384Z,72.63
2019-03-22T01:36:37.767Z,74.20
2019-03-22T01:39:06.767Z,72.03
2019-03-22T01:41:35.508Z,77.67
2019-03-22T01:44:03.902Z,75.43
2019-03-22T01:46:32.407Z,77.63
2019-03-22T01:49:00.790Z,79.47
2019-03-22T01:51:29.195Z,77.77
2019-03-22T01:53:57.644Z,73.23
2019-03-22T01:56:26.056Z,78.53
2019-03-22T01:58:54.449Z,75.40
2019-03-22T02:01:22.862Z,81.00
2019-03-22T02:03:51.310Z,76.53
2019-03-22T02:06:19.707Z,82.83
2019-03-22T02:08:48.114Z,79.87
2019-03-22T02:11:16.491Z,82.87
2019-03-22T02:13:44.904Z,83.83
2019-03-22T02:16:13.311Z,80.40
2019-03-22T02:18:41.740Z,79.97
2019-03-22T02:21:10.147Z,76.80
2019-03-22T02:23:38.560Z,85.50
2019-03-22T02:26:07.027Z,85.50
2019-03-22T02:28:35.434Z,80.83
2019-03-22T02:31:03.832Z,77.17
2019-03-22T02:33:32.239Z,80.57
2019-03-22T02:36:00.620Z,79.87
2019-03-22T02:38:29.025Z,88.43
2019-03-22T02:40:57.506Z,80.57
2019-03-22T02:43:25.855Z,83.57
2019-03-22T02:45:54.235Z,80.27
2019-03-22T02:48:22.746Z,77.83
2019-03-22T02:50:51.126Z,79.57
2019-03-22T02:53:19.534Z,76.10
2019-03-22T02:55:47.960Z,92.70
2019-03-22T02:58:21.091Z,83.40
2019-03-22T03:00:46.495Z,83.47
2019-03-22T03:03:14.899Z,81.63
2019-03-22T03:05:43.312Z,84.07
2019-03-22T03:08:11.699Z,90.37
2019-03-22T03:10:40.143Z,84.27
2019-03-22T03:13:08.475Z,84.17
2019-03-22T03:15:36.897Z,87.77
2019-03-22T03:18:05.306Z,91.43
2019-03-22T03:20:33.684Z,92.03
2019-03-22T03:23:02.092Z,93.63
2019-03-22T03:25:30.489Z,92.97
2019-03-22T03:27:58.882Z,98.37
2019-03-22T03:30:27.281Z,94.63
2019-03-22T03:32:55.715Z,102.70
2019-03-22T03:35:24.107Z,94.47
2019-03-22T03:37:52.465Z,94.07
2019-03-22T03:40:20.865Z,104.50
2019-03-22T03:42:49.341Z,100.20
2019-03-22T03:45:32.622Z,102.23
2019-03-22T03:48:01.885Z,100.20
2019-03-22T03:50:30.366Z,104.27
2019-03-22T03:52:58.768Z,99.60
2019-03-22T03:55:27.999Z,108.63
2019-03-22T03:57:56.390Z,98.73
2019-03-22T04:00:24.819Z,104.87
2019-03-22T04:02:53.242Z,106.17
2019-03-22T04:05:21.631Z,104.67
2019-03-22T04:07:50.041Z,100.57
2019-03-22T04:10:18.434Z,106.30
2019-03-22T04:12:47.341Z,109.77
2019-03-22T04:15:15.715Z,114.87
2019-03-22T04:17:44.095Z,115.57
2019-03-22T04:20:12.517Z,122.30
2019-03-22T04:22:40.955Z,118.60
2019-03-22T04:25:09.326Z,115.53
2019-03-22T04:27:37.808Z,115.03
2019-03-22T04:30:06.963Z,112.13
2019-03-22T04:32:35.358Z,105.23
2019-03-22T04:35:05.831Z,106.33
2019-03-22T04:37:34.216Z,105.67
2019-03-22T04:40:02.594Z,106.23
2019-03-22T04:42:31.026Z,112.47
2019-03-22T04:44:59.420Z,121.30
2019-03-22T04:47:27.835Z,114.73
2019-03-22T04:49:56.220Z,120.03
2019-03-22T04:52:24.628Z,110.77
2019-03-22T04:54:53.678Z,114.83
2019-03-22T04:57:22.053Z,113.47
2019-03-22T04:59:50.469Z,118.07
2019-03-22T05:02:18.842Z,120.60
2019-03-22T05:04:47.263Z,119.33
2019-03-22T05:07:15.648Z,125.93
2019-03-22T05:09:44.055Z,121.83
2019-03-22T05:12:14.256Z,136.93
2019-03-22T05:14:42.514Z,133.37
2019-03-22T05:17:11.015Z,136.47
2019-03-22T05:19:39.383Z,133.70
2019-03-22T05:22:07.793Z,138.20
2019-03-22T05:24:36.168Z,143.97
2019-03-22T05:27:04.589Z,152.73
2019-03-22T05:29:33.070Z,140.33
2019-03-22T05:32:07.170Z,158.93
2019-03-22T05:34:35.581Z,163.17
2019-03-22T05:37:04.037Z,146.33
2019-03-22T05:39:32.516Z,146.13
2019-03-22T05:42:00.930Z,151.97
2019-03-22T05:44:29.322Z,145.30
2019-03-22T05:46:57.715Z,155.37
2019-03-22T05:49:26.148Z,150.33
2019-03-22T05:51:54.560Z,147.53
2019-03-22T05:54:23.041Z,134.37
2019-03-22T05:56:51.436Z,120.43
2019-03-22T05:59:19.878Z,128.33
2019-03-22T06:01:48.267Z,116.03
2019-03-22T06:04:16.671Z,133.90
2019-03-22T06:06:45.063Z,130.60
2019-03-22T06:09:13.464Z,130.50
2019-03-22T06:11:41.844Z,145.93
2019-03-22T06:14:10.255Z,138.13
2019-03-22T06:16:38.636Z,130.00
2019-03-22T06:19:07.016Z,120.67
2019-03-22T06:21:35.423Z,109.50
2019-03-22T06:24:03.811Z,105.63
2019-03-22T06:26:32.227Z,220.00
2019-03-22T06:29:00.631Z,152.53
2019-03-22T06:31:29.017Z,156.20
2019-03-22T06:33:57.444Z,144.57
2019-03-22T06:36:26.756Z,140.87
2019-03-22T06:38:55.175Z,139.50
2019-03-22T06:41:23.558Z,177.13
2019-03-22T06:43:51.935Z,202.17
2019-03-22T06:46:20.347Z,149.43
2019-03-22T06:48:48.727Z,181.87
2019-03-22T06:51:17.176Z,150.93
2019-03-22T06:53:45.552Z,147.27
2019-03-22T06:56:14.035Z,170.53
2019-03-22T06:58:42.414Z,152.13
2019-03-22T07:01:10.822Z,134.50
2019-03-22T07:03:39.222Z,109.13
2019-03-22T07:06:07.598Z,142.33
2019-03-22T07:08:36.012Z,135.97
2019-03-22T07:11:04.423Z,100.67
2019-03-22T07:13:32.931Z,117.53
2019-03-22T07:16:01.339Z,107.60
2019-03-22T07:18:29.742Z,103.53
2019-03-22T07:20:58.132Z,106.37
2019-03-22T07:23:26.544Z,90.57
2019-03-22T07:25:54.938Z,86.40
2019-03-22T07:28:23.351Z,98.73
2019-03-22T07:30:51.752Z,90.13
2019-03-22T07:33:20.142Z,107.90
2019-03-22T07:35:48.507Z,94.70
2019-03-22T07:38:16.923Z,90.33
2019-03-22T07:40:45.304Z,89.33
2019-03-22T07:43:13.710Z,101.27
2019-03-22T07:45:42.128Z,101.03
2019-03-22T07:48:10.545Z,83.53
2019-03-22T07:50:38.924Z,81.47
2019-03-22T07:53:07.330Z,89.10
2019-03-22T07:55:35.719Z,74.80
2019-03-22T07:58:04.123Z,62.63
2019-03-22T08:00:32.543Z,73.57
2019-03-22T08:03:01.022Z,103.37
2019-03-22T08:05:29.454Z,73.13
2019-03-22T08:07:57.856Z,83.77
2019-03-22T08:10:26.256Z,80.10
2019-03-22T08:12:54.645Z,64.57
2019-03-22T08:15:30.888Z,69.63
2019-03-22T08:17:59.948Z,64.30
2019-03-22T08:20:28.555Z,59.07
2019-03-22T08:22:56.987Z,63.43
2019-03-22T08:25:25.375Z,57.77
2019-03-22T08:27:53.799Z,72.57
2019-03-22T08:30:22.178Z,60.07
2019-03-22T08:32:50.718Z,67.60
2019-03-22T08:35:19.056Z,68.87
2019-03-22T08:37:52.602Z,69.70
2019-03-22T08:40:17.517Z,68.07
2019-03-22T08:42:45.934Z,72.57
2019-03-22T08:45:14.370Z,70.50
2019-03-22T08:47:42.763Z,69.60
2019-03-22T08:50:12.123Z,62.73
2019-03-22T08:52:40.521Z,65.73
2019-03-22T08:55:08.923Z,67.70
2019-03-22T08:57:37.368Z,63.00
2019-03-22T09:00:11.030Z,64.33
2019-03-22T09:02:39.428Z,69.33
2019-03-22T09:05:07.817Z,59.83
2019-03-22T09:07:36.209Z,58.60
2019-03-22T09:10:11.900Z,61.63
2019-03-22T09:12:40.281Z,58.33
2019-03-22T09:15:09.864Z,60.13
2019-03-22T09:17:43.006Z,58.30
2019-03-22T09:20:11.418Z,59.87
2019-03-22T09:22:39.791Z,55.10
2019-03-22T09:25:08.194Z,60.27
2019-03-22T09:27:36.807Z,60.80
2019-03-22T09:30:13.331Z,60.57
2019-03-22T09:32:41.782Z,59.83
2019-03-22T09:35:10.144Z,64.20
2019-03-22T09:37:38.544Z,67.70
2019-03-22T09:40:08.435Z,68.47
2019-03-22T09:42:37.279Z,67.87
2019-03-22T09:45:07.232Z,66.80
2019-03-22T09:47:35.618Z,72.23
2019-03-22T09:50:06.678Z,77.50
2019-03-22T09:52:35.047Z,74.50
2019-03-22T09:55:13.126Z,76.50
2019-03-22T09:57:33.605Z,78.23
2019-03-22T10:00:01.994Z,75.90
2019-03-22T10:02:30.402Z,81.43
2019-03-22T10:04:58.829Z,83.73
2019-03-22T10:07:27.193Z,82.30
2019-03-22T10:09:55.576Z,84.40
2019-03-22T10:12:23.991Z,79.13
2019-03-22T10:14:52.406Z,76.53
2019-03-22T10:17:20.933Z,82.20
2019-03-22T10:19:49.326Z,82.90
2019-03-22T10:22:17.731Z,87.33
2019-03-22T10:24:46.126Z,87.30
2019-03-22T10:27:14.545Z,86.50
2019-03-22T10:29:42.916Z,85.77
2019-03-22T10:32:11.434Z,84.27
2019-03-22T10:34:40.012Z,91.03
2019-03-22T10:37:08.558Z,92.23
2019-03-22T10:39:37.007Z,91.33
2019-03-22T10:42:05.424Z,97.67
2019-03-22T10:44:33.808Z,102.23
2019-03-22T10:47:02.285Z,92.47
2019-03-22T10:49:30.764Z,92.43
2019-03-22T10:51:59.197Z,94.33
2019-03-22T10:54:27.610Z,93.33
2019-03-22T10:56:55.938Z,91.97
2019-03-22T10:59:24.347Z,94.37
2019-03-22T11:02:03.181Z,98.20
2019-03-22T11:04:22.791Z,96.10
2019-03-22T11:06:51.172Z,99.40
2019-03-22T11:09:19.571Z,92.57
2019-03-22T11:11:47.959Z,97.67
2019-03-22T11:14:16.373Z,95.70
2019-03-22T11:16:44.757Z,93.63
2019-03-22T11:19:13.177Z,88.67
2019-03-22T11:21:41.568Z,94.90
2019-03-22T11:24:09.980Z,89.57
2019-03-22T11:26:38.386Z,92.70
2019-03-22T11:29:06.785Z,93.70
2019-03-22T11:31:39.758Z,82.43
2019-03-22T11:34:05.300Z,83.90
2019-03-22T11:36:33.713Z,87.23
2019-03-22T11:39:02.154Z,80.97
2019-03-22T11:41:30.609Z,73.90
2019-03-22T11:43:59.001Z,80.13
2019-03-22T11:46:27.424Z,84.37
2019-03-22T11:48:55.806Z,84.33
2019-03-22T11:51:24.215Z,84.07
2019-03-22T11:53:52.600Z,87.60
2019-03-22T11:56:21.009Z,81.73
2019-03-22T11:58:49.411Z,78.20
2019-03-22T12:01:21.285Z,80.60
2019-03-22T12:03:47.856Z,81.97
2019-03-22T12:06:17.251Z,85.77
2019-03-22T12:08:45.657Z,82.47
2019-03-22T12:11:14.041Z,78.70
2019-03-22T12:13:42.458Z,74.13
2019-03-22T12:16:10.868Z,73.53
2019-03-22T12:18:39.285Z,70.13
2019-03-22T12:21:07.666Z,68.27
2019-03-22T12:23:36.069Z,73.93
2019-03-22T12:26:06.435Z,67.43
2019-03-22T12:28:34.507Z,68.03
2019-03-22T12:31:02.919Z,72.73
2019-03-22T12:33:31.372Z,74.13
2019-03-22T12:36:00.764Z,60.93
2019-03-22T12:38:29.210Z,62.13
2019-03-22T12:40:57.590Z,55.00
2019-03-22T12:43:25.997Z,48.20
2019-03-22T12:45:54.418Z,53.90
2019-03-22T12:48:22.830Z,56.93
2019-03-22T12:50:51.206Z,47.50
2019-03-22T12:53:19.651Z,51.30
2019-03-22T12:55:48.802Z,47.60
2019-03-22T12:58:17.248Z,44.87
2019-03-22T13:00:45.660Z,47.23
2019-03-22T13:03:14.057Z,38.53
2019-03-22T13:05:42.538Z,39.27
2019-03-22T13:08:10.923Z,40.17
2019-03-22T13:10:39.307Z,46.63
2019-03-22T13:13:07.711Z,43.33
2019-03-22T13:15:36.118Z,47.40
2019-03-22T13:18:04.517Z,48.97
2019-03-22T13:20:32.914Z,50.40
2019-03-22T13:23:01.320Z,45.37
2019-03-22T13:25:29.700Z,47.17
2019-03-22T13:27:58.117Z,49.63
2019-03-22T13:30:32.738Z,47.33
2019-03-22T13:33:01.261Z,49.27
2019-03-22T13:35:29.666Z,46.60
2019-03-22T13:37:58.043Z,47.87
2019-03-22T13:40:26.457Z,53.43
2019-03-22T13:42:54.845Z,48.93
2019-03-22T13:45:23.278Z,45.30
2019-03-22T13:47:51.656Z,46.37
2019-03-22T13:50:20.070Z,41.10
2019-03-22T13:52:48.443Z,38.70
2019-03-22T13:55:16.834Z,49.40
2019-03-22T13:57:45.250Z,52.00
2019-03-22T14:00:15.108Z,49.30
2019-03-22T14:02:43.486Z,48.90
2019-03-22T14:05:11.911Z,44.80
2019-03-22T14:07:40.323Z,47.80
2019-03-22T14:10:11.356Z,46.73
2019-03-22T14:12:39.742Z,45.37
2019-03-22T14:15:08.550Z,41.33
2019-03-22T14:17:36.990Z,41.93
2019-03-22T14:20:11.108Z,47.23
2019-03-22T14:22:36.898Z,44.73
2019-03-22T14:25:06.339Z,47.77
2019-03-22T14:27:34.736Z,44.37
2019-03-22T14:30:04.972Z,42.13
2019-03-22T14:32:33.382Z,41.50
2019-03-22T14:35:01.765Z,41.90
2019-03-22T14:37:30.220Z,45.23
2019-03-22T14:39:58.608Z,40.83
2019-03-22T14:42:27.031Z,42.37
2019-03-22T14:44:55.418Z,42.60
2019-03-22T14:47:23.827Z,48.77
2019-03-22T14:49:52.249Z,79.97
2019-03-22T14:52:20.669Z,73.17
2019-03-22T14:54:49.059Z,79.37
2019-03-22T14:57:17.446Z,70.40
2019-03-22T14:59:45.855Z,68.50
2019-03-22T15:02:14.303Z,67.87
2019-03-22T15:04:42.708Z,71.17
2019-03-22T15:07:19.579Z,69.13
2019-03-22T15:09:41.244Z,63.30
2019-03-22T15:12:09.664Z,70.47
2019-03-22T15:14:48.615Z,80.43
2019-03-22T15:17:24.629Z,80.93
2019-03-22T15:20:10.803Z,84.10
2019-03-22T15:22:56.042Z,87.97
2019-03-22T15:25:41.172Z,92.67
2019-03-22T15:28:23.245Z,80.27
2019-03-22T15:30:53.300Z,91.57
2019-03-22T15:33:41.667Z,94.83
2019-03-22T15:36:29.963Z,91.17
2019-03-22T15:39:12.113Z,89.30
2019-03-22T15:41:40.510Z,95.40
2019-03-22T15:44:09.013Z,96.63
2019-03-22T15:46:37.428Z,85.70
2019-03-22T15:49:05.839Z,86.03
2019-03-22T15:51:34.227Z,91.67
2019-03-22T15:54:02.631Z,91.70
2019-03-22T15:56:31.134Z,91.47
2019-03-22T15:58:59.527Z,90.03
2019-03-22T16:01:27.914Z,91.20
2019-03-22T16:03:56.375Z,88.33
2019-03-22T16:06:24.758Z,85.87
2019-03-22T16:08:53.172Z,97.63
2019-03-22T16:11:21.567Z,97.13
2019-03-22T16:13:49.981Z,103.30
2019-03-22T16:16:18.362Z,97.83
2019-03-22T16:18:46.794Z,102.03
2019-03-22T16:21:15.203Z,96.87
2019-03-22T16:23:43.620Z,102.37
2019-03-22T16:26:12.085Z,98.80
2019-03-22T16:28:40.489Z,98.40
2019-03-22T16:31:08.884Z,106.03
2019-03-22T16:33:37.372Z,106.57
2019-03-22T16:36:05.839Z,95.37
2019-03-22T16:38:34.224Z,103.80
2019-03-22T16:41:02.617Z,93.53
2019-03-22T16:43:31.028Z,101.23
2019-03-22T16:45:59.402Z,99.57
2019-03-22T16:48:27.790Z,97.43
2019-03-22T16:50:56.270Z,93.43
2019-03-22T16:53:24.668Z,106.57
2019-03-22T16:55:53.087Z,108.03
2019-03-22T16:58:21.513Z,100.90
2019-03-22T17:00:50.159Z,98.20
2019-03-22T17:03:18.519Z,97.03
2019-03-22T17:05:46.948Z,99.27
2019-03-22T17:08:15.354Z,104.93
2019-03-22T17:10:43.744Z,105.47
2019-03-22T17:13:12.206Z,114.57
2019-03-22T17:15:40.632Z,106.77
2019-03-22T17:18:09.103Z,114.07
2019-03-22T17:20:37.522Z,111.17
2019-03-22T17:23:05.966Z,106.53
2019-03-22T17:25:34.364Z,108.03
2019-03-22T17:28:02.752Z,110.50
2019-03-22T17:30:31.224Z,112.13
2019-03-22T17:32:59.607Z,112.20
2019-03-22T17:35:27.986Z,111.90
2019-03-22T17:37:56.390Z,119.97
2019-03-22T17:40:24.789Z,116.40
2019-03-22T17:42:53.219Z,119.40
2019-03-22T17:45:21.610Z,122.73
2019-03-22T17:47:49.993Z,119.43
2019-03-22T17:50:18.411Z,120.77
2019-03-22T17:52:46.805Z,141.87
2019-03-22T17:55:15.218Z,134.03
2019-03-22T17:57:43.615Z,119.20
2019-03-22T18:00:15.232Z,131.33
2019-03-22T18:02:43.641Z,128.03
2019-03-22T18:05:12.075Z,128.97
2019-03-22T18:07:40.459Z,128.60
2019-03-22T18:10:12.867Z,127.60
2019-03-22T18:12:41.333Z,129.17
2019-03-22T18:15:10.964Z,141.00
2019-03-22T18:17:39.393Z,127.93
2019-03-22T18:20:16.922Z,127.93
2019-03-22T18:22:45.339Z,148.83
2019-03-22T18:25:15.724Z,137.43
2019-03-22T18:27:43.795Z,126.30
2019-03-22T18:30:13.538Z,139.87
2019-03-22T18:32:41.934Z,143.60
2019-03-22T18:35:10.360Z,151.90
2019-03-22T18:37:38.747Z,150.00
2019-03-22T18:40:12.302Z,144.77
2019-03-22T18:42:40.754Z,147.37
2019-03-22T18:45:11.740Z,145.80
2019-03-22T18:47:40.908Z,158.77
2019-03-22T18:50:10.447Z,149.70
2019-03-22T18:52:38.974Z,156.63
2019-03-22T18:55:07.554Z,150.20
2019-03-22T18:57:36.268Z,151.20
2019-03-22T19:00:17.672Z,152.80
2019-03-22T19:02:46.040Z,143.07
2019-03-22T19:05:14.625Z,161.97
2019-03-22T19:07:43.022Z,161.27
2019-03-22T19:10:12.794Z,149.50
2019-03-22T19:12:41.244Z,152.43
2019-03-22T19:15:11.378Z,149.40
2019-03-22T19:17:39.791Z,150.23
2019-03-22T19:20:12.923Z,156.93
2019-03-22T19:22:41.386Z,155.20
2019-03-22T19:25:09.975Z,151.63
2019-03-22T19:27:38.455Z,150.37
2019-03-22T19:30:09.882Z,152.67
2019-03-22T19:32:38.286Z,154.03
2019-03-22T19:35:07.847Z,160.17
2019-03-22T19:37:36.404Z,161.70
2019-03-22T19:40:13.958Z,162.13
2019-03-22T19:42:42.444Z,155.60
2019-03-22T19:45:12.873Z,147.40
2019-03-22T19:47:41.278Z,139.67
2019-03-22T19:50:16.303Z,141.83
2019-03-22T19:52:44.665Z,146.63
2019-03-22T19:55:13.084Z,152.17
2019-03-22T19:57:41.499Z,152.03
2019-03-22T20:00:15.225Z,144.70
2019-03-22T20:02:43.614Z,142.30
2019-03-22T20:05:12.024Z,150.63
2019-03-22T20:07:42.039Z,158.90
2019-03-22T20:10:11.808Z,161.27
2019-03-22T20:12:40.235Z,152.17
2019-03-22T20:15:09.491Z,150.83
2019-03-22T20:17:37.873Z,141.23
2019-03-22T20:20:07.932Z,136.80
2019-03-22T20:22:36.339Z,131.07
2019-03-22T20:25:07.109Z,122.23
2019-03-22T20:27:35.527Z,122.20
2019-03-22T20:30:05.953Z,125.50
2019-03-22T20:32:34.360Z,119.43
2019-03-22T20:35:02.988Z,120.53
2019-03-22T20:37:31.403Z,119.33
2019-03-22T20:39:59.783Z,123.37
2019-03-22T20:42:28.196Z,122.77
2019-03-22T20:44:56.592Z,119.67
2019-03-22T20:47:25.004Z,116.23
2019-03-22T20:49:53.419Z,116.53
2019-03-22T20:52:21.795Z,106.97
2019-03-22T20:54:50.210Z,114.37
2019-03-22T20:57:18.625Z,116.83
2019-03-22T20:59:47.044Z,114.10
2019-03-22T21:02:15.455Z,110.97
2019-03-22T21:04:43.848Z,97.87
2019-03-22T21:07:12.265Z,96.57
2019-03-22T21:09:40.675Z,103.83
2019-03-22T21:12:09.068Z,97.83
2019-03-22T21:14:37.453Z,98.70
2019-03-22T21:17:05.863Z,99.23
2019-03-22T21:19:34.261Z,96.00
2019-03-22T21:22:02.667Z,92.50
2019-03-22T21:24:31.115Z,95.13
2019-03-22T21:27:15.589Z,95.17
2019-03-22T21:29:44.172Z,81.03
2019-03-22T21:32:08.648Z,89.27
2019-03-22T21:34:37.270Z,84.27
2019-03-22T21:37:05.700Z,79.40
2019-03-22T21:39:34.130Z,83.53
2019-03-22T21:42:02.518Z,82.10
2019-03-22T21:44:30.932Z,68.70
2019-03-22T21:46:59.345Z,69.90
2019-03-22T21:49:29.894Z,73.33
2019-03-22T21:51:57.870Z,71.13
2019-03-22T21:54:26.253Z,65.80
2019-03-22T21:56:54.753Z,63.57
2019-03-22T21:59:23.157Z,66.73
2019-03-22T22:01:51.536Z,60.57
2019-03-22T22:04:19.951Z,61.67
2019-03-22T22:06:48.355Z,62.03
2019-03-22T22:09:16.776Z,63.13
2019-03-22T22:11:45.182Z,61.90
2019-03-22T22:14:13.564Z,62.07
2019-03-22T22:16:42.048Z,62.00
2019-03-22T22:19:10.461Z,61.80
2019-03-22T22:21:38.894Z,60.37
2019-03-22T22:24:07.295Z,64.97
2019-03-22T22:26:35.763Z,57.13
2019-03-22T22:29:04.191Z,58.03
2019-03-22T22:31:32.643Z,60.90
2019-03-22T22:34:01.042Z,57.43
2019-03-22T22:36:29.463Z,61.83
2019-03-22T22:38:57.868Z,62.20
2019-03-22T22:41:26.280Z,56.97
2019-03-22T22:43:54.693Z,59.83
2019-03-22T22:46:23.151Z,63.20
2019-03-22T22:48:54.206Z,64.57
2019-03-22T22:51:22.612Z,54.50
2019-03-22T22:53:50.987Z,54.40
2019-03-22T22:56:19.381Z,59.63
2019-03-22T22:58:47.804Z,59.73
2019-03-22T23:01:16.287Z,58.13
2019-03-22T23:03:44.707Z,55.43
2019-03-22T23:06:13.086Z,58.63
2019-03-22T23:08:41.547Z,57.23
2019-03-22T23:11:09.935Z,58.60
2019-03-22T23:13:38.356Z,62.73
2019-03-22T23:16:06.743Z,58.13
2019-03-22T23:18:35.107Z,56.13
2019-03-22T23:21:03.515Z,59.87
2019-03-22T23:23:31.982Z,59.57
2019-03-22T23:26:00.386Z,61.83
2019-03-22T23:28:28.773Z,64.20
2019-03-22T23:30:57.178Z,60.33
2019-03-22T23:33:25.558Z,61.63
2019-03-22T23:35:53.979Z,63.07
2019-03-22T23:38:23.292Z,66.83
2019-03-22T23:40:51.671Z,63.97
2019-03-22T23:43:20.066Z,67.47
2019-03-22T23:45:48.482Z,64.93
2019-03-22T23:48:16.863Z,61.63
2019-03-22T23:50:45.273Z,64.47
2019-03-22T23:53:13.683Z,65.80
2019-03-22T23:55:42.095Z,57.33
2019-03-22T23:58:10.493Z,60.10
